Time,TemperatureF,DewpointF,PressureIn,WindDirection,WindDirectionDegrees,WindSpeedMPH,WindSpeedGustMPH,Humidity,HourlyPrecipIn,Conditions,Clouds,dailyrainin,SolarRadiationWatts/m^2,SoftwareType,DateUTC
2013-08-22 00:13:00,75.9,72.0,30.09,South,169,0.0,1.0,86,0.00,,,0.00,0,weatherlink.com 1.10,2013-08-22 05:13:00,
2013-08-22 00:28:00,75.5,71.0,30.09,South,169,0.0,1.0,87,0.00,,,0.00,0,weatherlink.com 1.10,2013-08-22 05:28:00,
2013-08-22 00:43:00,75.3,72.0,30.09,South,169,0.0,1.0,88,0.00,,,0.00,0,weatherlink.com 1.10,2013-08-22 05:43:00,
2013-08-22 00:58:00,75.3,72.0,30.09,South,169,0.0,1.0,89,0.00,,,0.00,0,weatherlink.com 1.10,2013-08-22 05:58:00,
2013-08-22 01:13:00,75.1,72.0,30.09,South,169,0.0,1.0,89,0.00,,,0.00,0,weatherlink.com 1.10,2013-08-22 06:13:00,
2013-08-22 01:28:00,74.8,72.0,30.09,South,169,0.0,1.0,90,0.00,,,0.00,0,weatherlink.com 1.10,2013-08-22 06:28:00,
2013-08-22 01:43:00,74.3,71.0,30.09,South,169,0.0,0.0,90,0.00,,,0.00,0,weatherlink.com 1.10,2013-08-22 06:43:00,
2013-08-22 01:58:00,73.7,71.0,30.08,South,169,0.0,1.0,91,0.00,,,0.00,0,weatherlink.com 1.10,2013-08-22 06:58:00,
2013-08-22 02:13:00,73.5,71.0,30.08,South,169,0.0,0.0,92,0.00,,,0.00,0,weatherlink.com 1.10,2013-08-22 07:13:00,
2013-08-22 02:28:00,73.2,71.0,30.08,South,169,0.0,0.0,92,0.00,,,0.00,0,weatherlink.com 1.10,2013-08-22 07:28:00,
2013-08-22 02:43:00,73.3,71.0,30.08,South,169,0.0,1.0,93,0.00,,,0.00,0,weatherlink.com 1.10,2013-08-22 07:43:00,
2013-08-22 02:58:00,73.3,71.0,30.08,South,169,0.0,1.0,93,0.00,,,0.00,0,weatherlink.com 1.10,2013-08-22 07:58:00,
2013-08-22 03:13:00,73.1,71.0,30.08,South,169,0.0,2.0,93,0.00,,,0.00,0,weatherlink.com 1.10,2013-08-22 08:13:00,
2013-08-22 03:28:00,73.1,71.0,30.07,South,169,1.0,3.0,94,0.00,,,0.00,0,weatherlink.com 1.10,2013-08-22 08:28:00,
2013-08-22 03:43:00,73.2,71.0,30.08,South,169,0.0,3.0,94,0.00,,,0.00,0,weatherlink.com 1.10,2013-08-22 08:43:00,
2013-08-22 03:58:00,73.3,72.0,30.08,South,169,0.0,2.0,94,0.00,,,0.00,0,weatherlink.com 1.10,2013-08-22 08:58:00,
2013-08-22 04:13:00,73.3,72.0,30.08,South,169,1.0,5.0,94,0.00,,,0.00,0,weatherlink.com 1.10,2013-08-22 09:13:00,
2013-08-22 04:28:00,73.3,72.0,30.08,South,169,0.0,2.0,94,0.00,,,0.00,0,weatherlink.com 1.10,2013-08-22 09:28:00,
2013-08-22 04:43:00,73.0,71.0,30.09,South,169,0.0,1.0,94,0.00,,,0.00,0,weatherlink.com 1.10,2013-08-22 09:43:00,
2013-08-22 04:58:00,73.0,71.0,30.09,South,169,2.0,3.0,94,0.00,,,0.00,0,weatherlink.com 1.10,2013-08-22 09:58:00,
2013-08-22 05:13:00,73.0,71.0,30.09,South,169,0.0,3.0,94,0.00,,,0.00,0,weatherlink.com 1.10,2013-08-22 10:13:00,
2013-08-22 05:28:00,72.7,71.0,30.10,South,169,0.0,0.0,94,0.00,,,0.00,0,weatherlink.com 1.10,2013-08-22 10:28:00,
2013-08-22 05:43:00,72.4,71.0,30.10,South,169,1.0,1.0,95,0.00,,,0.00,0,weatherlink.com 1.10,2013-08-22 10:43:00,
2013-08-22 07:30:00,73.2,72.0,30.12,South,169,0.0,2.0,96,0.00,,,0.00,51,weatherlink.com 1.10,2013-08-22 12:30:00,
2013-08-22 07:45:00,73.8,72.0,30.12,South,169,1.0,3.0,95,0.00,,,0.00,162,weatherlink.com 1.10,2013-08-22 12:45:00,
2013-08-22 08:00:00,74.9,73.0,30.12,South,169,1.0,4.0,95,0.00,,,0.00,214,weatherlink.com 1.10,2013-08-22 13:00:00,
2013-08-22 08:16:00,76.2,74.0,30.12,South,169,2.0,2.0,93,0.00,,,0.00,269,weatherlink.com 1.10,2013-08-22 13:16:00,
2013-08-22 08:32:00,77.6,74.0,30.12,SSW,205,1.0,4.0,89,0.00,,,0.00,318,weatherlink.com 1.10,2013-08-22 13:32:00,
2013-08-22 08:46:00,78.9,74.0,30.12,WSW,253,2.0,4.0,85,0.00,,,0.00,364,weatherlink.com 1.10,2013-08-22 13:46:00,
2013-08-22 09:01:00,79.6,74.0,30.12,WSW,245,1.0,5.0,84,0.00,,,0.00,415,weatherlink.com 1.10,2013-08-22 14:01:00,
2013-08-22 09:16:00,80.3,75.0,30.12,SSW,205,1.0,6.0,83,0.00,,,0.00,455,weatherlink.com 1.10,2013-08-22 14:16:00,
2013-08-22 09:32:00,80.7,75.0,30.12,West,268,2.0,5.0,83,0.00,,,0.00,501,weatherlink.com 1.10,2013-08-22 14:32:00,
2013-08-22 09:48:00,81.5,76.0,30.11,SW,218,0.0,6.0,82,0.00,,,0.00,541,weatherlink.com 1.10,2013-08-22 14:48:00,
2013-08-22 10:03:00,81.9,76.0,30.11,WSW,245,1.0,4.0,81,0.00,,,0.00,635,weatherlink.com 1.10,2013-08-22 15:03:00,
2013-08-22 10:18:00,82.5,76.0,30.11,WSW,258,4.0,5.0,80,0.00,,,0.00,271,weatherlink.com 1.10,2013-08-22 15:18:00,
2013-08-22 10:33:00,83.2,76.0,30.11,SSW,205,1.0,4.0,79,0.00,,,0.00,271,weatherlink.com 1.10,2013-08-22 15:33:00,
2013-08-22 10:48:00,83.5,76.0,30.12,NNW,348,2.0,5.0,77,0.00,,,0.00,214,weatherlink.com 1.10,2013-08-22 15:48:00,
2013-08-22 11:03:00,84.3,77.0,30.11,SW,225,2.0,5.0,78,0.00,,,0.00,821,weatherlink.com 1.10,2013-08-22 16:03:00,
2013-08-22 11:18:00,85.0,75.0,30.11,NE,43,2.0,6.0,72,0.00,,,0.00,179,weatherlink.com 1.10,2013-08-22 16:18:00,
2013-08-22 11:35:00,85.8,76.0,30.10,North,5,2.0,6.0,72,0.00,,,0.00,912,weatherlink.com 1.10,2013-08-22 16:35:00,
2013-08-22 11:50:00,86.0,75.0,30.10,NW,321,2.0,6.0,70,0.00,,,0.00,207,weatherlink.com 1.10,2013-08-22 16:50:00,
2013-08-22 12:05:00,85.6,75.0,30.09,NW,322,0.0,2.0,71,0.00,,,0.00,202,weatherlink.com 1.10,2013-08-22 17:05:00,
2013-08-22 12:20:00,86.3,76.0,30.09,East,80,1.0,3.0,72,0.00,,,0.00,1005,weatherlink.com 1.10,2013-08-22 17:20:00,
2013-08-22 12:35:00,86.8,76.0,30.08,NW,305,1.0,4.0,71,0.00,,,0.00,237,weatherlink.com 1.10,2013-08-22 17:35:00,
2013-08-22 12:50:00,87.2,75.0,30.07,ENE,60,4.0,5.0,67,0.00,,,0.00,983,weatherlink.com 1.10,2013-08-22 17:50:00,
2013-08-22 13:05:00,87.2,75.0,30.07,WNW,289,0.0,3.0,67,0.00,,,0.00,206,weatherlink.com 1.10,2013-08-22 18:05:00,
2013-08-22 13:20:00,87.1,75.0,30.07,WNW,283,0.0,2.0,67,0.00,,,0.00,1034,weatherlink.com 1.10,2013-08-22 18:20:00,
2013-08-22 13:36:00,87.7,75.0,30.06,SE,131,1.0,4.0,67,0.00,,,0.00,236,weatherlink.com 1.10,2013-08-22 18:36:00,
2013-08-22 13:52:00,88.1,73.0,30.05,SW,226,2.0,5.0,62,0.00,,,0.00,1037,weatherlink.com 1.10,2013-08-22 18:52:00,
2013-08-22 14:07:00,89.3,75.0,30.05,ENE,76,1.0,4.0,63,0.00,,,0.00,967,weatherlink.com 1.10,2013-08-22 19:07:00,
2013-08-22 14:20:00,89.2,74.0,30.05,ENE,70,2.0,4.0,62,0.00,,,0.00,200,weatherlink.com 1.10,2013-08-22 19:20:00,
2013-08-22 14:36:00,88.7,74.0,30.04,WNW,301,0.0,4.0,63,0.00,,,0.00,229,weatherlink.com 1.10,2013-08-22 19:36:00,
2013-08-22 14:52:00,89.3,74.0,30.04,NNE,20,0.0,4.0,61,0.00,,,0.00,243,weatherlink.com 1.10,2013-08-22 19:52:00,
2013-08-22 15:06:00,88.6,74.0,30.03,NNE,29,0.0,3.0,63,0.00,,,0.00,181,weatherlink.com 1.10,2013-08-22 20:06:00,
2013-08-22 15:22:00,87.8,76.0,30.03,NNE,29,1.0,3.0,69,0.00,,,0.00,151,weatherlink.com 1.10,2013-08-22 20:22:00,
2013-08-22 15:38:00,84.6,76.0,30.02,SW,226,1.0,4.0,74,0.00,,,0.00,188,weatherlink.com 1.10,2013-08-22 20:38:00,
2013-08-22 15:51:00,82.8,75.0,30.02,SSW,205,0.0,3.0,76,0.00,,,0.00,271,weatherlink.com 1.10,2013-08-22 20:51:00,
2013-08-22 16:08:00,84.1,75.0,30.02,SSW,205,1.0,3.0,75,0.00,,,0.00,545,weatherlink.com 1.10,2013-08-22 21:08:00,
2013-08-22 16:23:00,87.4,74.0,30.02,SSW,205,1.0,3.0,64,0.00,,,0.00,141,weatherlink.com 1.10,2013-08-22 21:23:00,
2013-08-22 16:38:00,88.1,76.0,30.01,SSW,205,0.0,1.0,68,0.00,,,0.00,512,weatherlink.com 1.10,2013-08-22 21:38:00,
2013-08-22 16:53:00,89.5,74.0,30.01,SSW,205,0.0,3.0,61,0.00,,,0.00,475,weatherlink.com 1.10,2013-08-22 21:53:00,
2013-08-22 17:08:00,90.0,74.0,30.00,NE,56,3.0,4.0,59,0.00,,,0.00,264,weatherlink.com 1.10,2013-08-22 22:08:00,
2013-08-22 17:23:00,86.1,71.0,30.01,NNE,31,4.0,10.0,60,0.00,,,0.00,343,weatherlink.com 1.10,2013-08-22 22:23:00,
2013-08-22 17:38:00,84.1,71.0,30.00,East,90,7.0,10.0,64,0.00,,,0.00,348,weatherlink.com 1.10,2013-08-22 22:38:00,
2013-08-22 17:53:00,84.1,70.0,30.00,ESE,108,3.0,6.0,62,0.00,,,0.00,241,weatherlink.com 1.10,2013-08-22 22:53:00,
2013-08-22 18:10:00,84.1,70.0,30.00,East,79,1.0,4.0,63,0.00,,,0.00,190,weatherlink.com 1.10,2013-08-22 23:10:00,
2013-08-22 18:25:00,84.0,70.0,30.00,East,79,0.0,2.0,63,0.00,,,0.00,102,weatherlink.com 1.10,2013-08-22 23:25:00,
2013-08-22 18:39:00,84.3,71.0,30.01,East,89,0.0,4.0,64,0.00,,,0.00,107,weatherlink.com 1.10,2013-08-22 23:39:00,
2013-08-22 18:54:00,84.2,71.0,30.00,East,89,0.0,1.0,65,0.00,,,0.00,74,weatherlink.com 1.10,2013-08-22 23:54:00,
2013-08-22 19:10:00,84.0,71.0,30.00,East,89,0.0,0.0,66,0.00,,,0.00,37,weatherlink.com 1.10,2013-08-23 00:10:00,
2013-08-22 19:25:00,83.4,73.0,30.01,NNW,327,0.0,4.0,70,0.00,,,0.00,14,weatherlink.com 1.10,2013-08-23 00:25:00,
2013-08-22 19:40:00,82.1,72.0,30.00,NNE,25,0.0,2.0,72,0.00,,,0.00,0,weatherlink.com 1.10,2013-08-23 00:40:00,
2013-08-22 19:55:00,80.9,72.0,30.00,NNE,25,0.0,0.0,73,0.00,,,0.00,0,weatherlink.com 1.10,2013-08-23 00:55:00,
2013-08-22 20:11:00,79.9,71.0,30.00,NNE,25,0.0,0.0,75,0.00,,,0.00,0,weatherlink.com 1.10,2013-08-23 01:11:00,
2013-08-22 20:26:00,79.1,72.0,30.01,NNE,25,0.0,1.0,78,0.00,,,0.00,0,weatherlink.com 1.10,2013-08-23 01:26:00,
2013-08-22 20:41:00,78.4,71.0,30.02,NNE,25,0.0,0.0,79,0.00,,,0.00,0,weatherlink.com 1.10,2013-08-23 01:41:00,
2013-08-22 20:56:00,77.9,72.0,30.02,NNE,25,0.0,1.0,81,0.00,,,0.00,0,weatherlink.com 1.10,2013-08-23 01:56:00,
2013-08-22 21:12:00,77.6,72.0,30.02,NNE,25,0.0,0.0,83,0.00,,,0.00,0,weatherlink.com 1.10,2013-08-23 02:12:00,
2013-08-22 21:26:00,77.4,72.0,30.03,NNE,25,0.0,0.0,84,0.00,,,0.00,0,weatherlink.com 1.10,2013-08-23 02:26:00,
2013-08-22 21:41:00,76.5,71.0,30.04,NNE,25,0.0,0.0,84,0.00,,,0.00,0,weatherlink.com 1.10,2013-08-23 02:41:00,
2013-08-22 21:56:00,76.2,72.0,30.04,NNE,25,0.0,0.0,87,0.00,,,0.00,0,weatherlink.com 1.10,2013-08-23 02:56:00,
2013-08-22 22:11:00,75.9,72.0,30.04,NNE,25,0.0,0.0,88,0.00,,,0.00,0,weatherlink.com 1.10,2013-08-23 03:11:00,
2013-08-22 22:26:00,75.5,72.0,30.04,NNE,25,0.0,0.0,88,0.00,,,0.00,0,weatherlink.com 1.10,2013-08-23 03:26:00,
2013-08-22 22:41:00,75.3,72.0,30.04,NNE,25,0.0,1.0,90,0.00,,,0.00,0,weatherlink.com 1.10,2013-08-23 03:41:00,
2013-08-22 22:56:00,75.1,72.0,30.04,NNE,25,0.0,1.0,89,0.00,,,0.00,0,weatherlink.com 1.10,2013-08-23 03:56:00,
2013-08-22 23:11:00,75.3,71.0,30.04,NNE,25,0.0,0.0,87,0.00,,,0.00,0,weatherlink.com 1.10,2013-08-23 04:11:00,
2013-08-22 23:26:00,75.3,71.0,30.04,NNE,25,0.0,1.0,87,0.00,,,0.00,0,weatherlink.com 1.10,2013-08-23 04:26:00,
2013-08-22 23:41:00,75.5,71.0,30.04,ESE,123,0.0,3.0,87,0.00,,,0.00,0,weatherlink.com 1.10,2013-08-23 04:41:00,
2013-08-22 23:56:00,75.5,71.0,30.03,ESE,123,0.0,1.0,86,0.00,,,0.00,0,weatherlink.com 1.10,2013-08-23 04:56:00,